Time;durP1;ratioP1;P1;durP2;ratioP2;P2;SDS_P1;SDS_P2;PMS_P1;PMS_P2;Temp;Humidity;BMP_temperature;BMP_pressure;BME280_temperature;BME280_humidity;BME280_pressure;Samples;Min_cycle;Max_cycle;Signal;HPM_P1;HPM_P2
2021/01/21 00:00:17;;;;;;;4.68;0.85;;;12.50;88.40;;;;;;2079096;28;20030;-74
2021/01/21 00:01:18;;;;;;;2.28;1.27;;;12.60;88.50;;;;;;2078940;28;20075;-75
2021/01/21 00:02:19;;;;;;;1.20;1.00;;;12.50;88.60;;;;;;2079014;28;20033;-74
2021/01/21 00:03:19;;;;;;;3.35;1.30;;;12.60;88.10;;;;;;2078962;28;20036;-75
2021/01/21 00:04:20;;;;;;;2.72;1.13;;;12.60;88.20;;;;;;2078891;28;20057;-73
2021/01/21 00:05:20;;;;;;;6.50;1.10;;;12.60;88.20;;;;;;2079440;28;20057;-74
2021/01/21 00:06:21;;;;;;;2.58;1.02;;;12.60;88.30;;;;;;2070210;28;20390;-75
2021/01/21 00:07:22;;;;;;;3.58;1.38;;;12.60;88.40;;;;;;2074973;28;20033;-74
2021/01/21 00:08:22;;;;;;;1.65;0.95;;;12.60;88.00;;;;;;2069953;28;20060;-75
2021/01/21 00:09:23;;;;;;;2.53;1.20;;;12.60;88.10;;;;;;2070717;28;20535;-75
2021/01/21 00:10:24;;;;;;;3.05;0.98;;;12.60;88.10;;;;;;2079426;28;20052;-74
2021/01/21 00:11:24;;;;;;;2.97;0.98;;;12.60;88.60;;;;;;2079388;28;20029;-74
2021/01/21 00:12:26;;;;;;;2.70;0.70;;;12.60;89.00;;;;;;2079172;28;20033;-74
2021/01/21 00:13:26;;;;;;;3.67;1.20;;;12.60;89.00;;;;;;2079080;28;20036;-76
2021/01/21 00:14:27;;;;;;;3.35;1.40;;;12.60;89.40;;;;;;2069898;28;20080;-75
2021/01/21 00:15:27;;;;;;;7.18;1.70;;;12.60;89.20;;;;;;2070547;28;20022;-74
2021/01/21 00:16:28;;;;;;;2.20;1.42;;;12.60;89.20;;;;;;2079116;28;20022;-75
2021/01/21 00:17:29;;;;;;;2.75;1.48;;;12.60;89.00;;;;;;2078899;28;20539;-75
2021/01/21 00:18:29;;;;;;;2.72;1.13;;;12.70;88.80;;;;;;2078780;28;20026;-76
2021/01/21 00:19:30;;;;;;;1.77;0.90;;;12.60;88.00;;;;;;2079708;28;20017;-76
2021/01/21 00:20:30;;;;;;;3.33;1.00;;;12.60;88.20;;;;;;2079208;28;20030;-76
2021/01/21 00:21:31;;;;;;;2.38;1.30;;;12.70;88.40;;;;;;2078993;28;20018;-75
2021/01/21 00:22:32;;;;;;;3.83;1.00;;;12.60;88.40;;;;;;2078995;28;20033;-75
2021/01/21 00:23:32;;;;;;;1.20;1.00;;;12.70;88.50;;;;;;2079207;28;20787;-75
2021/01/21 00:24:33;;;;;;;2.80;1.05;;;12.70;87.90;;;;;;2078923;28;20025;-74
2021/01/21 00:25:33;;;;;;;2.60;1.00;;;12.70;88.40;;;;;;2079480;28;20056;-75
2021/01/21 00:26:34;;;;;;;2.78;1.13;;;12.70;88.10;;;;;;2078989;28;20025;-75
2021/01/21 00:27:35;;;;;;;1.98;0.93;;;12.70;87.80;;;;;;2078569;28;20032;-75
2021/01/21 00:28:35;;;;;;;2.55;1.40;;;12.70;88.10;;;;;;2078570;28;20025;-75
2021/01/21 00:29:36;;;;;;;1.40;0.80;;;12.70;87.70;;;;;;2070592;28;20058;-77
2021/01/21 00:30:36;;;;;;;4.88;1.30;;;12.70;87.50;;;;;;2062124;28;20057;-74
2021/01/21 00:31:37;;;;;;;3.15;1.00;;;12.70;87.60;;;;;;2070738;28;20025;-75
2021/01/21 00:32:39;;;;;;;3.10;1.10;;;12.70;87.50;;;;;;2078683;28;20029;-74
2021/01/21 00:33:40;;;;;;;1.85;1.30;;;12.70;87.40;;;;;;2079080;28;20021;-75
2021/01/21 00:34:40;;;;;;;5.38;1.40;;;12.70;87.60;;;;;;2078669;28;20053;-76
2021/01/21 00:35:41;;;;;;;2.05;0.93;;;12.70;87.20;;;;;;2079163;28;20547;-74
2021/01/21 00:36:41;;;;;;;2.10;1.15;;;12.70;87.40;;;;;;2078767;28;20349;-74
2021/01/21 00:37:42;;;;;;;3.42;1.15;;;12.60;86.90;;;;;;2079098;28;20025;-76
2021/01/21 00:38:43;;;;;;;4.30;1.23;;;12.60;86.70;;;;;;2078639;28;20606;-76
2021/01/21 00:39:43;;;;;;;5.32;1.50;;;12.60;86.80;;;;;;2070422;28;20113;-75
2021/01/21 00:40:44;;;;;;;4.25;1.35;;;12.60;86.80;;;;;;2070110;28;20032;-74
2021/01/21 00:41:45;;;;;;;1.80;0.93;;;12.60;86.80;;;;;;2079125;28;20025;-74
2021/01/21 00:42:45;;;;;;;2.95;1.00;;;12.70;86.40;;;;;;2079254;28;20121;-75
2021/01/21 00:43:46;;;;;;;4.20;1.30;;;12.60;85.20;;;;;;2079058;28;20028;-74
2021/01/21 00:44:47;;;;;;;5.00;1.30;;;12.60;86.20;;;;;;2079412;28;20013;-74
2021/01/21 00:45:50;;;;;;;5.00;1.58;;;12.70;86.20;;;;;;2069827;28;20050;-75
2021/01/21 00:46:51;;;;;;;2.80;0.95;;;12.60;86.00;;;;;;2070200;28;20025;-74
2021/01/21 00:47:52;;;;;;;2.50;0.98;;;12.60;86.30;;;;;;2079035;28;20038;-74
2021/01/21 00:48:52;;;;;;;3.47;1.52;;;12.60;86.30;;;;;;2078636;28;20104;-76
2021/01/21 00:49:53;;;;;;;2.78;1.10;;;12.60;86.00;;;;;;2078724;28;20033;-76
2021/01/21 00:50:54;;;;;;;3.42;1.27;;;12.60;86.00;;;;;;2070307;28;20022;-74
2021/01/21 00:51:54;;;;;;;2.60;1.20;;;12.60;86.00;;;;;;2070033;28;20049;-75
2021/01/21 00:52:55;;;;;;;3.50;1.15;;;12.60;85.70;;;;;;2070320;28;20469;-76
2021/01/21 00:53:55;;;;;;;2.28;1.15;;;12.60;85.50;;;;;;2069852;28;20033;-75
2021/01/21 00:54:56;;;;;;;2.53;1.13;;;12.60;85.70;;;;;;2070497;28;20053;-75
2021/01/21 00:55:57;;;;;;;3.33;1.35;;;12.60;85.40;;;;;;2070334;28;20033;-74
2021/01/21 00:56:57;;;;;;;1.92;1.08;;;12.60;85.50;;;;;;2078528;28;20032;-74
2021/01/21 00:57:58;;;;;;;3.28;0.93;;;12.60;85.80;;;;;;2078789;28;20089;-75
2021/01/21 00:58:58;;;;;;;1.50;0.90;;;12.60;85.40;;;;;;2079400;28;20133;-75
2021/01/21 00:59:59;;;;;;;2.42;0.93;;;12.60;85.30;;;;;;2078882;28;20026;-75
2021/01/21 01:00:59;;;;;;;2.20;1.00;;;12.60;85.40;;;;;;2078979;28;20052;-74
2021/01/21 01:02:00;;;;;;;2.10;1.55;;;12.60;85.40;;;;;;2078765;28;20116;-75
2021/01/21 01:03:02;;;;;;;1.48;0.93;;;12.60;85.40;;;;;;2079158;28;20038;-74
2021/01/21 01:04:02;;;;;;;3.45;1.10;;;12.60;85.30;;;;;;2078991;28;20539;-73
2021/01/21 01:05:05;;;;;;;4.28;1.00;;;12.60;85.50;;;;;;2070125;28;20160;-73
2021/01/21 01:06:07;;;;;;;2.22;0.90;;;12.60;85.40;;;;;;2063047;28;20058;-75
2021/01/21 01:07:07;;;;;;;2.33;1.02;;;12.60;85.20;;;;;;2071850;28;20381;-74
2021/01/21 01:08:08;;;;;;;6.15;1.23;;;12.60;85.10;;;;;;2079987;28;20053;-76
2021/01/21 01:09:08;;;;;;;2.47;1.30;;;12.60;85.30;;;;;;2072089;28;20034;-74
2021/01/21 01:10:10;;;;;;;2.33;1.05;;;12.60;85.30;;;;;;2072121;28;20029;-76
2021/01/21 01:11:10;;;;;;;3.40;1.05;;;12.50;85.20;;;;;;2081112;28;20599;-75
2021/01/21 01:12:11;;;;;;;2.83;1.00;;;12.50;85.20;;;;;;2080754;28;20030;-76
2021/01/21 01:13:11;;;;;;;4.47;1.10;;;12.50;85.10;;;;;;2080639;28;20028;-74
2021/01/21 01:14:13;;;;;;;2.00;0.85;;;12.50;85.30;;;;;;2071830;28;20547;-75
2021/01/21 01:15:14;;;;;;;3.22;0.88;;;12.50;85.20;;;;;;2072015;28;20021;-74
2021/01/21 01:16:15;;;;;;;2.97;0.98;;;12.50;85.50;;;;;;2080237;28;20034;-76
2021/01/21 01:17:15;;;;;;;5.65;1.27;;;12.50;85.00;;;;;;2080660;28;20427;-74
2021/01/21 01:18:16;;;;;;;2.83;0.90;;;12.50;84.90;;;;;;2080154;28;20087;-76
2021/01/21 01:19:18;;;;;;;3.88;1.33;;;12.50;85.00;;;;;;2072011;28;20033;-75
2021/01/21 01:20:19;;;;;;;2.58;1.00;;;12.50;85.20;;;;;;2073752;28;20028;-77
2021/01/21 01:21:19;;;;;;;2.65;1.00;;;12.50;85.00;;;;;;2082589;28;20381;-76
2021/01/21 01:22:20;;;;;;;2.55;1.00;;;12.50;85.10;;;;;;2073274;28;20026;-76
2021/01/21 01:23:21;;;;;;;3.42;1.13;;;12.50;84.80;;;;;;2072281;28;20124;-75
2021/01/21 01:24:21;;;;;;;3.95;1.50;;;12.50;85.00;;;;;;2071511;28;20030;-75
2021/01/21 01:25:23;;;;;;;4.55;1.20;;;12.50;85.00;;;;;;2080495;28;20436;-76
2021/01/21 01:26:24;;;;;;;1.70;0.80;;;12.50;84.90;;;;;;2080553;28;20087;-76
2021/01/21 01:27:24;;;;;;;3.00;1.20;;;12.50;85.80;;;;;;2080086;28;20111;-76
2021/01/21 01:28:25;;;;;;;3.10;0.90;;;12.50;85.10;;;;;;2080253;28;20087;-74
2021/01/21 01:29:26;;;;;;;1.85;1.00;;;12.50;84.80;;;;;;2080246;28;20029;-75
2021/01/21 01:30:27;;;;;;;2.63;1.20;;;12.50;84.80;;;;;;2080187;28;20030;-75
2021/01/21 01:31:27;;;;;;;2.35;0.88;;;12.50;84.80;;;;;;2080637;28;20033;-76
2021/01/21 01:32:28;;;;;;;2.42;0.80;;;12.50;84.80;;;;;;2080445;28;20025;-75
2021/01/21 01:33:28;;;;;;;2.47;0.95;;;12.50;84.90;;;;;;2071533;28;20129;-75
2021/01/21 01:34:29;;;;;;;2.00;0.77;;;12.50;84.80;;;;;;2071586;28;20615;-76
2021/01/21 01:35:29;;;;;;;2.83;1.17;;;12.50;84.90;;;;;;2080526;28;20155;-76
2021/01/21 01:36:30;;;;;;;2.05;0.90;;;12.50;84.90;;;;;;2072022;28;20018;-76
2021/01/21 01:37:31;;;;;;;1.73;1.00;;;12.50;85.00;;;;;;2071064;28;20412;-75
2021/01/21 01:38:31;;;;;;;3.45;1.42;;;12.50;84.80;;;;;;2080039;28;20033;-76
2021/01/21 01:39:32;;;;;;;2.00;1.10;;;12.50;84.60;;;;;;2080630;28;20491;-76
2021/01/21 01:40:33;;;;;;;4.22;1.50;;;12.50;84.90;;;;;;2080333;28;20044;-76
2021/01/21 01:41:33;;;;;;;2.75;1.05;;;12.50;84.90;;;;;;2080696;28;20036;-75
2021/01/21 01:42:34;;;;;;;6.10;1.50;;;12.50;84.60;;;;;;2080314;28;20457;-76
2021/01/21 01:43:34;;;;;;;3.70;1.23;;;12.50;84.50;;;;;;2071047;28;20456;-75
2021/01/21 01:44:36;;;;;;;3.67;1.30;;;12.50;84.50;;;;;;2071414;28;20104;-75
2021/01/21 01:45:36;;;;;;;3.15;1.00;;;12.50;84.40;;;;;;2080289;28;20047;-75
2021/01/21 01:46:38;;;;;;;3.90;1.00;;;12.50;84.40;;;;;;2071788;28;20792;-76
2021/01/21 01:47:42;;;;;;;1.10;0.90;;;12.50;84.10;;;;;;2063205;28;20394;-75
2021/01/21 01:48:43;;;;;;;3.40;1.45;;;12.50;84.30;;;;;;2071734;28;20037;-75
2021/01/21 01:49:45;;;;;;;3.33;1.00;;;12.50;84.50;;;;;;2080282;28;20485;-74
2021/01/21 01:50:46;;;;;;;2.38;1.00;;;12.50;84.20;;;;;;2080269;28;20013;-76
2021/01/21 01:51:47;;;;;;;1.92;1.00;;;12.50;84.00;;;;;;2080480;28;20010;-74
2021/01/21 01:52:50;;;;;;;1.80;1.15;;;12.50;84.40;;;;;;2071670;28;20101;-76
2021/01/21 01:53:51;;;;;;;4.72;1.02;;;12.50;84.30;;;;;;2071665;28;20381;-76
2021/01/21 01:54:53;;;;;;;2.78;0.95;;;12.50;84.20;;;;;;2080482;28;20026;-75
2021/01/21 01:55:54;;;;;;;1.73;0.90;;;12.50;84.20;;;;;;2080799;28;20037;-75
2021/01/21 01:56:56;;;;;;;1.30;0.73;;;12.50;83.70;;;;;;2079985;28;20080;-75
2021/01/21 01:57:57;;;;;;;2.33;0.88;;;12.50;83.90;;;;;;2079972;28;20052;-75
2021/01/21 01:58:58;;;;;;;1.30;0.80;;;12.50;84.00;;;;;;2079836;28;20022;-75
2021/01/21 02:00:00;;;;;;;2.80;0.93;;;12.50;84.00;;;;;;2080441;28;20021;-76
2021/01/21 02:01:01;;;;;;;2.28;0.90;;;12.50;84.80;;;;;;2080162;28;20022;-76
2021/01/21 02:02:02;;;;;;;2.47;1.10;;;12.50;84.00;;;;;;2080471;28;20480;-77
2021/01/21 02:03:03;;;;;;;2.58;1.00;;;12.50;83.60;;;;;;2079470;28;20037;-76
2021/01/21 02:04:03;;;;;;;3.17;1.13;;;12.50;84.40;;;;;;2071379;28;20044;-75
2021/01/21 02:05:05;;;;;;;2.28;1.10;;;12.50;84.10;;;;;;2071899;28;20113;-75
2021/01/21 02:06:06;;;;;;;3.35;0.95;;;12.50;83.90;;;;;;2080491;28;20029;-77
2021/01/21 02:07:07;;;;;;;3.88;1.10;;;12.50;83.50;;;;;;2079546;28;20025;-75
2021/01/21 02:08:08;;;;;;;2.40;0.70;;;12.50;83.70;;;;;;2079705;28;20480;-75
2021/01/21 02:09:09;;;;;;;1.42;1.02;;;12.50;83.60;;;;;;2071574;28;20050;-76
2021/01/21 02:10:14;;;;;;;1.38;0.90;;;12.50;83.40;;;;;;2071601;28;20029;-76
2021/01/21 02:11:30;;;;;;;1.30;0.77;;;12.50;83.20;;;;;;2079957;28;20033;-75
2021/01/21 02:12:59;;;;;;;2.35;1.20;;;12.40;83.30;;;;;;2080230;28;20083;-75
2021/01/21 02:14:03;;;;;;;2.10;1.20;;;12.40;83.20;;;;;;2072108;28;20030;-75
2021/01/21 02:15:20;;;;;;;1.13;0.90;;;12.40;83.80;;;;;;2078081;28;20031;-76
2021/01/21 02:16:45;;;;;;;2.83;1.00;;;12.40;83.10;;;;;;2075773;28;20124;-75
2021/01/21 02:18:06;;;;;;;5.32;1.10;;;12.40;83.30;;;;;;2074082;28;20083;-76
2021/01/21 02:19:44;;;;;;;3.33;1.00;;;12.30;82.30;;;;;;2080143;28;20028;-75
2021/01/21 02:20:50;;;;;;;3.70;0.90;;;12.30;83.10;;;;;;2072106;28;20149;-76
2021/01/21 02:21:57;;;;;;;2.95;0.85;;;12.30;84.20;;;;;;2063580;28;20116;-75
2021/01/21 02:23:19;;;;;;;3.45;1.10;;;12.30;84.60;;;;;;2068575;28;20113;-76
2021/01/21 02:24:26;;;;;;;3.38;1.10;;;12.30;82.80;;;;;;2074285;28;20481;-75
2021/01/21 02:25:56;;;;;;;3.80;1.02;;;12.30;84.20;;;;;;2079817;28;20021;-76
2021/01/21 02:27:06;;;;;;;3.03;1.02;;;12.30;83.20;;;;;;2071040;28;20038;-75
2021/01/21 02:28:07;;;;;;;1.42;0.70;;;12.30;83.70;;;;;;2078628;28;20047;-76
2021/01/21 02:29:30;;;;;;;3.00;1.33;;;12.30;84.10;;;;;;2079725;28;20784;-76
2021/01/21 02:30:50;;;;;;;2.10;1.05;;;12.30;84.20;;;;;;2079916;28;20632;-75
2021/01/21 02:32:05;;;;;;;3.30;1.23;;;12.30;83.20;;;;;;2080368;28;20037;-75
2021/01/21 02:33:32;;;;;;;1.50;0.95;;;12.30;84.40;;;;;;2079750;28;20025;-76
2021/01/21 02:34:43;;;;;;;3.45;1.30;;;12.30;84.10;;;;;;2066587;28;20029;-75
2021/01/21 02:35:47;;;;;;;2.38;0.95;;;12.30;83.20;;;;;;2080289;28;20061;-74
2021/01/21 02:36:53;;;;;;;1.90;1.15;;;12.30;83.90;;;;;;2079882;28;20108;-73
2021/01/21 02:37:56;;;;;;;3.15;0.90;;;12.30;82.80;;;;;;2080038;28;20396;-76
2021/01/21 02:39:01;;;;;;;2.10;0.82;;;12.30;84.70;;;;;;2070697;28;20029;-75
2021/01/21 02:40:05;;;;;;;3.70;1.33;;;12.30;83.20;;;;;;2072039;28;20076;-75
2021/01/21 02:41:06;;;;;;;2.30;0.80;;;12.30;83.40;;;;;;2080246;28;20083;-76
2021/01/21 02:42:07;;;;;;;3.78;0.70;;;12.40;83.80;;;;;;2079873;28;20033;-76
2021/01/21 02:43:11;;;;;;;4.22;1.40;;;12.40;83.50;;;;;;2069301;28;20029;-74
2021/01/21 02:44:12;;;;;;;1.90;1.02;;;12.40;84.10;;;;;;2070077;28;20040;-76
2021/01/21 02:45:14;;;;;;;2.67;0.93;;;12.40;83.10;;;;;;2079840;28;20054;-74
2021/01/21 02:46:14;;;;;;;2.85;0.82;;;12.40;83.40;;;;;;2071139;28;20026;-75
2021/01/21 02:47:17;;;;;;;1.52;0.60;;;12.40;83.30;;;;;;2070588;28;20068;-74
2021/01/21 02:48:18;;;;;;;3.15;0.95;;;12.40;83.50;;;;;;2071474;28;20026;-73
2021/01/21 02:49:18;;;;;;;2.25;0.93;;;12.50;83.60;;;;;;2080018;28;20350;-76
2021/01/21 02:50:19;;;;;;;1.27;0.70;;;12.40;83.40;;;;;;2067091;28;20030;-75
2021/01/21 02:51:24;;;;;;;2.72;0.93;;;12.40;83.30;;;;;;2071310;28;20034;-75
2021/01/21 02:52:35;;;;;;;3.17;0.95;;;12.40;82.70;;;;;;2078903;28;20057;-74
2021/01/21 02:53:38;;;;;;;2.80;1.08;;;12.40;82.90;;;;;;2079591;28;20579;-75
2021/01/21 02:55:02;;;;;;;3.47;0.82;;;12.40;82.60;;;;;;2079560;28;20029;-74
2021/01/21 02:56:09;;;;;;;17.33;1.40;;;12.40;82.70;;;;;;2077339;28;20435;-75
2021/01/21 02:57:27;;;;;;;3.42;1.00;;;12.40;83.40;;;;;;2070894;28;20385;-73
2021/01/21 02:58:42;;;;;;;1.27;0.82;;;12.40;82.80;;;;;;2068826;28;20110;-74
2021/01/21 02:59:44;;;;;;;3.25;1.05;;;12.40;83.10;;;;;;2079956;28;20026;-75
2021/01/21 03:00:47;;;;;;;2.63;0.70;;;12.40;83.80;;;;;;2079824;28;20040;-73
2021/01/21 03:01:50;;;;;;;2.10;1.05;;;12.40;83.10;;;;;;2073868;28;20018;-74
2021/01/21 03:03:00;;;;;;;3.03;0.70;;;12.40;83.40;;;;;;2072502;28;20045;-74
2021/01/21 03:04:02;;;;;;;;;;;12.40;83.30;;;;;;2073026;28;20121;-76
2021/01/21 03:05:03;;;;;;;1.40;0.70;;;12.40;83.30;;;;;;2071711;28;19999;-75
2021/01/21 03:06:06;;;;;;;1.52;0.98;;;12.40;83.80;;;;;;2072639;28;20022;-75
2021/01/21 03:07:11;;;;;;;2.53;1.00;;;12.40;84.40;;;;;;2072497;28;20091;-74
2021/01/21 03:08:11;;;;;;;2.33;0.75;;;12.50;84.10;;;;;;2075906;28;20018;-74
2021/01/21 03:09:12;;;;;;;3.10;1.02;;;12.50;84.10;;;;;;2080179;28;20028;-75
2021/01/21 03:10:17;;;;;;;2.25;0.70;;;12.50;84.10;;;;;;2081290;28;20075;-75
2021/01/21 03:11:18;;;;;;;2.60;0.85;;;12.50;83.80;;;;;;2081007;28;20108;-74
2021/01/21 03:12:19;;;;;;;3.70;0.98;;;12.60;83.70;;;;;;2081069;28;20415;-74
2021/01/21 03:13:20;;;;;;;2.83;0.93;;;12.50;83.40;;;;;;2081254;28;20022;-75
2021/01/21 03:14:20;;;;;;;2.10;0.90;;;12.60;83.30;;;;;;2080891;28;20372;-73
2021/01/21 03:15:21;;;;;;;2.63;0.90;;;12.60;83.10;;;;;;2080751;28;20026;-74
2021/01/21 03:16:22;;;;;;;2.70;0.90;;;12.60;82.80;;;;;;2080767;28;20138;-73
2021/01/21 03:17:24;;;;;;;0.98;0.75;;;12.60;83.00;;;;;;2071778;28;20054;-74
2021/01/21 03:18:25;;;;;;;0.93;0.70;;;12.60;83.10;;;;;;2071552;28;20022;-75
2021/01/21 03:19:25;;;;;;;2.22;1.00;;;12.70;83.00;;;;;;2077012;28;20108;-73
2021/01/21 03:20:26;;;;;;;2.25;0.77;;;12.70;83.00;;;;;;2081099;28;20108;-75
2021/01/21 03:21:27;;;;;;;0.82;0.68;;;12.60;83.10;;;;;;2080981;28;20070;-76
2021/01/21 03:22:27;;;;;;;2.60;0.85;;;12.70;83.20;;;;;;2081112;28;20029;-74
2021/01/21 03:23:28;;;;;;;5.13;0.75;;;12.70;83.00;;;;;;2081029;28;20639;-75
2021/01/21 03:24:28;;;;;;;1.30;0.82;;;12.70;82.50;;;;;;2080763;28;20060;-76
2021/01/21 03:25:29;;;;;;;0.90;0.70;;;12.70;82.60;;;;;;2080925;28;20032;-76
2021/01/21 03:26:30;;;;;;;11.73;0.77;;;12.70;82.50;;;;;;2080684;28;20701;-75
2021/01/21 03:27:30;;;;;;;1.80;0.80;;;12.70;82.60;;;;;;2080733;28;20088;-76
2021/01/21 03:28:31;;;;;;;0.73;0.50;;;12.80;82.40;;;;;;2080496;28;20075;-74
2021/01/21 03:29:32;;;;;;;1.45;0.80;;;12.70;82.10;;;;;;2080511;28;20095;-74
2021/01/21 03:30:33;;;;;;;1.58;0.88;;;12.80;82.40;;;;;;2080977;28;20026;-75
2021/01/21 03:31:33;;;;;;;2.13;0.85;;;12.80;82.60;;;;;;2081016;28;20025;-76
2021/01/21 03:32:37;;;;;;;2.10;0.73;;;12.80;82.60;;;;;;2080705;28;20037;-75
2021/01/21 03:33:38;;;;;;;2.10;0.80;;;12.80;82.10;;;;;;2080541;28;20039;-75
2021/01/21 03:34:38;;;;;;;3.42;0.90;;;12.80;82.20;;;;;;2080545;28;20052;-75
2021/01/21 03:35:39;;;;;;;3.67;1.00;;;12.80;82.40;;;;;;2080478;28;20785;-76
2021/01/21 03:36:40;;;;;;;1.83;0.93;;;12.80;82.20;;;;;;2080459;28;20030;-75
2021/01/21 03:37:40;;;;;;;2.63;0.85;;;12.80;82.10;;;;;;2080358;28;20049;-74
2021/01/21 03:38:41;;;;;;;3.67;0.80;;;12.90;82.30;;;;;;2080363;28;20067;-77
2021/01/21 03:39:41;;;;;;;2.50;0.73;;;12.90;82.50;;;;;;2080842;28;20391;-76
2021/01/21 03:40:42;;;;;;;1.63;0.52;;;12.90;83.30;;;;;;2080934;28;20021;-75
2021/01/21 03:41:42;;;;;;;2.42;1.00;;;12.90;82.50;;;;;;2080595;28;20231;-74
2021/01/21 03:42:43;;;;;;;2.13;0.90;;;13.00;82.40;;;;;;2072071;28;20036;-75
2021/01/21 03:43:43;;;;;;;2.58;1.00;;;12.90;82.50;;;;;;2072181;28;20400;-76
2021/01/21 03:44:44;;;;;;;1.70;0.82;;;12.90;82.50;;;;;;2071692;28;20014;-75
2021/01/21 03:45:45;;;;;;;3.03;0.90;;;12.90;82.00;;;;;;2072316;28;20018;-77
2021/01/21 03:46:46;;;;;;;4.00;1.40;;;13.00;82.20;;;;;;2079699;28;20510;-76
2021/01/21 03:47:46;;;;;;;1.05;0.65;;;13.00;81.90;;;;;;2072041;28;20056;-75
2021/01/21 03:48:47;;;;;;;1.30;0.75;;;13.00;82.10;;;;;;2071545;28;20045;-75
2021/01/21 03:49:47;;;;;;;2.75;0.80;;;13.00;82.10;;;;;;2080939;28;20372;-75
2021/01/21 03:50:49;;;;;;;1.58;1.00;;;13.00;82.20;;;;;;2080619;28;20100;-77
2021/01/21 03:51:50;;;;;;;3.75;0.85;;;13.00;82.10;;;;;;2072024;28;20072;-75
2021/01/21 03:52:50;;;;;;;1.02;0.60;;;13.00;82.10;;;;;;2071809;28;20056;-75
2021/01/21 03:53:51;;;;;;;5.13;0.80;;;13.10;81.70;;;;;;2080897;28;20026;-76
2021/01/21 03:54:51;;;;;;;1.63;0.85;;;13.10;81.70;;;;;;2071630;28;20026;-75
2021/01/21 03:55:52;;;;;;;1.52;0.80;;;13.10;81.90;;;;;;2071927;28;20030;-75
2021/01/21 03:56:53;;;;;;;2.13;1.00;;;13.10;81.80;;;;;;2079851;28;20061;-75
2021/01/21 03:57:53;;;;;;;2.08;0.85;;;13.10;81.80;;;;;;2080853;28;20101;-76
2021/01/21 03:58:54;;;;;;;1.42;0.70;;;13.10;81.80;;;;;;2080258;28;20067;-77
2021/01/21 03:59:54;;;;;;;4.90;1.42;;;13.10;81.40;;;;;;2080771;28;20034;-74
2021/01/21 04:00:55;;;;;;;1.15;0.80;;;13.10;81.70;;;;;;2080385;28;20049;-75
2021/01/21 04:01:55;;;;;;;2.70;1.00;;;13.10;81.50;;;;;;2079948;28;20065;-76
2021/01/21 04:02:56;;;;;;;1.55;0.63;;;13.10;81.50;;;;;;2079660;28;20108;-75
2021/01/21 04:03:57;;;;;;;1.52;0.90;;;13.10;82.10;;;;;;2079930;28;20025;-76
2021/01/21 04:04:57;;;;;;;3.45;0.73;;;13.10;82.20;;;;;;2078862;28;20156;-75
2021/01/21 04:05:59;;;;;;;4.57;1.08;;;13.10;82.20;;;;;;2079599;28;20056;-76
2021/01/21 04:06:59;;;;;;;1.90;0.80;;;13.10;82.50;;;;;;2077714;28;20039;-77
2021/01/21 04:08:00;;;;;;;2.38;0.60;;;13.10;82.80;;;;;;2070514;28;20025;-75
2021/01/21 04:09:01;;;;;;;5.30;1.15;;;13.20;82.60;;;;;;2070510;28;20084;-77
2021/01/21 04:10:01;;;;;;;1.67;0.90;;;13.20;82.60;;;;;;2070723;28;20030;-76
2021/01/21 04:11:02;;;;;;;3.25;0.80;;;13.20;82.60;;;;;;2079297;28;20029;-76
2021/01/21 04:12:03;;;;;;;1.85;0.80;;;13.20;82.90;;;;;;2079615;28;20388;-75
2021/01/21 04:13:03;;;;;;;0.80;0.68;;;13.20;82.90;;;;;;2078936;28;20477;-75
2021/01/21 04:14:04;;;;;;;1.90;1.08;;;13.10;82.80;;;;;;2079401;28;20033;-75
2021/01/21 04:15:05;;;;;;;1.33;0.70;;;13.20;83.10;;;;;;2070280;28;20548;-74
2021/01/21 04:16:07;;;;;;;0.98;0.52;;;13.20;83.00;;;;;;2070521;28;20026;-75
2021/01/21 04:17:07;;;;;;;2.00;0.75;;;13.20;82.80;;;;;;2078213;28;20059;-76
2021/01/21 04:18:08;;;;;;;2.25;0.80;;;13.20;82.70;;;;;;2079051;28;20021;-77
2021/01/21 04:19:08;;;;;;;1.77;0.80;;;13.20;82.60;;;;;;2079486;28;20480;-75
2021/01/21 04:20:10;;;;;;;2.58;0.80;;;13.20;82.40;;;;;;2079323;28;20452;-74
2021/01/21 04:21:10;;;;;;;2.15;0.77;;;13.20;82.90;;;;;;2079312;28;20424;-76
2021/01/21 04:22:11;;;;;;;1.63;1.02;;;13.20;82.40;;;;;;2079446;28;20021;-76
2021/01/21 04:23:11;;;;;;;1.67;0.70;;;13.20;81.90;;;;;;2079310;28;20075;-76
2021/01/21 04:24:12;;;;;;;1.63;1.00;;;13.20;82.40;;;;;;2079059;28;20385;-75
2021/01/21 04:25:13;;;;;;;2.03;0.90;;;13.20;82.40;;;;;;2079218;28;20112;-74
2021/01/21 04:26:13;;;;;;;2.22;0.80;;;13.20;83.00;;;;;;2079188;28;20531;-75
2021/01/21 04:27:14;;;;;;;1.02;0.70;;;13.20;82.40;;;;;;2078942;28;20357;-75
2021/01/21 04:28:14;;;;;;;1.30;0.70;;;13.20;82.40;;;;;;2078738;28;20090;-75
2021/01/21 04:29:15;;;;;;;2.15;1.05;;;13.20;82.30;;;;;;2078990;28;20104;-77
2021/01/21 04:30:16;;;;;;;1.23;0.70;;;13.20;82.40;;;;;;2079237;28;20038;-75
2021/01/21 04:31:16;;;;;;;2.90;0.70;;;13.20;82.30;;;;;;2079321;28;20108;-75
2021/01/21 04:32:17;;;;;;;1.02;0.70;;;13.20;82.20;;;;;;2079190;28;20025;-75
2021/01/21 04:33:18;;;;;;;1.48;0.60;;;13.20;82.20;;;;;;2078636;28;20029;-76
2021/01/21 04:34:18;;;;;;;2.47;0.80;;;13.20;82.40;;;;;;2079149;28;20024;-75
2021/01/21 04:35:19;;;;;;;1.25;0.57;;;13.20;82.20;;;;;;2078885;28;20582;-75
2021/01/21 04:36:20;;;;;;;9.30;0.80;;;13.20;82.40;;;;;;2079213;28;20879;-74
2021/01/21 04:37:20;;;;;;;1.10;0.70;;;13.20;82.30;;;;;;2078544;28;20112;-75
2021/01/21 04:38:21;;;;;;;1.30;0.60;;;13.30;82.60;;;;;;2070006;28;20022;-74
2021/01/21 04:39:21;;;;;;;1.55;0.80;;;13.20;82.50;;;;;;2070276;28;20026;-74
2021/01/21 04:40:23;;;;;;;2.33;0.73;;;13.20;82.40;;;;;;2069880;28;20136;-75
2021/01/21 04:41:24;;;;;;;1.27;0.90;;;13.20;82.40;;;;;;2062622;28;20676;-76
2021/01/21 04:42:25;;;;;;;1.77;0.70;;;13.20;81.90;;;;;;2076176;28;20104;-76
2021/01/21 04:43:25;;;;;;;2.47;0.93;;;13.30;82.30;;;;;;2079131;28;20636;-76
2021/01/21 04:44:26;;;;;;;0.77;0.50;;;13.30;82.30;;;;;;2079202;28;20460;-76
2021/01/21 04:45:27;;;;;;;0.90;0.60;;;13.30;82.20;;;;;;2079168;28;20448;-74
2021/01/21 04:46:28;;;;;;;1.23;0.52;;;13.30;82.00;;;;;;2070195;28;20065;-75
2021/01/21 04:47:29;;;;;;;3.38;1.23;;;13.30;82.00;;;;;;2070090;28;20408;-76
2021/01/21 04:48:30;;;;;;;1.48;0.73;;;13.30;82.30;;;;;;2070126;28;20026;-75
2021/01/21 04:49:33;;;;;;;2.70;0.80;;;13.30;82.20;;;;;;2070850;28;20045;-76
2021/01/21 04:50:34;;;;;;;3.88;0.60;;;13.30;82.30;;;;;;2079110;28;20030;-76
2021/01/21 04:51:37;;;;;;;1.42;1.00;;;13.30;82.20;;;;;;2079087;28;20472;-76
2021/01/21 04:52:39;;;;;;;1.40;0.75;;;13.30;82.40;;;;;;2079304;28;20018;-75
2021/01/21 04:53:50;;;;;;;1.15;0.60;;;13.30;82.40;;;;;;2070159;28;20994;-75
2021/01/21 04:54:51;;;;;;;;;;;13.30;82.40;;;;;;2072307;28;20022;-75
2021/01/21 04:55:58;;;;;;;0.73;0.50;;;13.30;81.90;;;;;;2079266;28;19913;-75
2021/01/21 04:57:03;;;;;;;1.55;0.60;;;13.20;82.80;;;;;;2069851;28;20033;-75
2021/01/21 04:58:31;;;;;;;1.35;0.57;;;13.30;83.20;;;;;;2062501;28;20022;-75
2021/01/21 04:59:36;;;;;;;2.17;1.30;;;13.20;82.50;;;;;;2071548;28;20029;-75
2021/01/21 05:00:38;;;;;;;2.22;0.70;;;13.20;83.50;;;;;;2079043;28;20084;-76
2021/01/21 05:01:39;;;;;;;1.50;0.70;;;13.30;84.40;;;;;;2079394;28;20022;-76
2021/01/21 05:02:41;;;;;;;0.65;0.57;;;13.30;83.80;;;;;;2079484;28;20041;-75
2021/01/21 05:03:42;;;;;;;1.70;0.80;;;13.30;83.90;;;;;;2078697;28;20044;-76
2021/01/21 05:04:44;;;;;;;4.70;0.80;;;13.30;83.80;;;;;;2079079;28;20441;-77
2021/01/21 05:05:45;;;;;;;1.17;0.43;;;13.30;83.60;;;;;;2079382;28;20041;-75
2021/01/21 05:06:46;;;;;;;0.73;0.50;;;13.30;83.70;;;;;;2078866;28;20025;-76
2021/01/21 05:07:47;;;;;;;0.63;0.40;;;13.40;83.90;;;;;;2079315;28;20105;-77
2021/01/21 05:08:49;;;;;;;0.73;0.40;;;13.30;83.90;;;;;;2079012;28;20022;-75
2021/01/21 05:09:49;;;;;;;0.95;0.40;;;13.30;83.60;;;;;;2070153;28;20118;-75
2021/01/21 05:10:51;;;;;;;0.95;0.60;;;13.40;83.80;;;;;;2070474;28;20481;-76
2021/01/21 05:11:53;;;;;;;1.77;0.68;;;13.40;83.90;;;;;;2079190;28;20029;-76
2021/01/21 05:12:54;;;;;;;1.02;0.60;;;13.40;83.90;;;;;;2079395;28;20155;-77
2021/01/21 05:13:55;;;;;;;0.70;0.50;;;13.40;83.60;;;;;;2079161;28;20427;-76
2021/01/21 05:14:55;;;;;;;1.27;0.50;;;13.40;83.80;;;;;;2079195;28;20018;-75
2021/01/21 05:15:56;;;;;;;0.73;0.40;;;13.40;84.30;;;;;;2078678;28;20018;-75
2021/01/21 05:16:57;;;;;;;0.75;0.40;;;13.40;84.30;;;;;;2079071;28;20033;-76
2021/01/21 05:17:59;;;;;;;2.30;0.55;;;13.40;84.50;;;;;;2078980;28;20025;-76
2021/01/21 05:19:00;;;;;;;0.73;0.47;;;13.40;84.70;;;;;;2079239;28;20580;-75
2021/01/21 05:20:02;;;;;;;0.80;0.52;;;13.40;84.40;;;;;;2079144;28;20040;-76
2021/01/21 05:21:04;;;;;;;0.60;0.50;;;13.40;84.60;;;;;;2079018;28;20515;-75
2021/01/21 05:22:05;;;;;;;0.55;0.45;;;13.40;84.80;;;;;;2079224;28;20553;-76
2021/01/21 05:23:06;;;;;;;0.82;0.40;;;13.40;84.90;;;;;;2079013;28;20067;-75
2021/01/21 05:24:10;;;;;;;1.02;0.70;;;13.40;84.80;;;;;;2069660;28;20511;-75
2021/01/21 05:25:12;;;;;;;0.75;0.40;;;13.40;85.30;;;;;;2070489;28;20397;-75